Time;durP1;ratioP1;P1;durP2;ratioP2;P2;SDS_P1;SDS_P2;PMS_P1;PMS_P2;Temp;Humidity;BMP_temperature;BMP_pressure;BME280_temperature;BME280_humidity;BME280_pressure;Samples;Min_cycle;Max_cycle;Signal;HPM_P1;HPM_P2
2022/01/22 00:02:07;;;;;;;3.17;1.20;;;6.90;99.90;;;;;;5094550;28;20020;-48
2022/01/22 00:04:33;;;;;;;8.02;1.55;;;6.90;99.90;;;;;;5094203;28;20024;-47
2022/01/22 00:07:02;;;;;;;4.60;1.20;;;7.00;99.90;;;;;;5094991;28;20020;-45
2022/01/22 00:09:35;;;;;;;12.23;1.25;;;6.90;99.90;;;;;;5094670;28;20063;-45
2022/01/22 00:12:03;;;;;;;12.40;1.48;;;7.00;99.90;;;;;;5094008;28;20035;-45
2022/01/22 00:14:28;;;;;;;4.35;1.17;;;7.00;99.90;;;;;;5094861;28;20016;-45
2022/01/22 00:16:59;;;;;;;6.38;0.98;;;7.00;99.90;;;;;;5094894;28;20475;-45
2022/01/22 00:19:26;;;;;;;8.00;1.20;;;7.00;99.90;;;;;;5093692;28;20062;-45
2022/01/22 00:21:53;;;;;;;9.80;1.67;;;7.00;99.90;;;;;;5094407;28;20016;-45
2022/01/22 00:24:19;;;;;;;11.73;1.63;;;7.00;99.90;;;;;;5094332;28;20470;-44
2022/01/22 00:26:45;;;;;;;4.55;0.88;;;7.00;99.90;;;;;;5093851;28;20024;-45
2022/01/22 00:29:12;;;;;;;8.05;1.38;;;7.10;99.90;;;;;;5094076;28;20039;-44
2022/01/22 00:31:39;;;;;;;5.18;1.92;;;7.10;99.90;;;;;;5094553;28;20039;-48
2022/01/22 00:34:06;;;;;;;7.93;1.40;;;7.10;99.90;;;;;;5093881;28;20029;-45
2022/01/22 00:36:32;;;;;;;7.55;2.55;;;7.10;99.90;;;;;;5094360;28;20088;-43
2022/01/22 00:38:58;;;;;;;4.25;0.90;;;7.10;99.90;;;;;;5093144;28;20170;-43
2022/01/22 00:41:23;;;;;;;2.60;1.40;;;7.10;99.90;;;;;;5093614;28;20296;-45
2022/01/22 00:43:49;;;;;;;4.60;0.70;;;7.10;99.90;;;;;;5094217;28;20596;-44
2022/01/22 00:46:15;;;;;;;2.13;0.95;;;7.10;99.90;;;;;;5093367;28;20016;-43
2022/01/22 00:48:40;;;;;;;2.25;0.85;;;7.10;99.90;;;;;;5094158;28;20030;-42
2022/01/22 00:51:06;;;;;;;3.88;0.88;;;7.10;99.90;;;;;;5093350;28;20063;-46
2022/01/22 00:53:32;;;;;;;2.78;0.73;;;7.10;99.90;;;;;;5093414;28;20032;-44
2022/01/22 00:55:58;;;;;;;6.43;0.70;;;7.20;99.90;;;;;;5093888;28;20024;-45
2022/01/22 00:58:23;;;;;;;4.05;1.00;;;7.20;99.90;;;;;;5093753;28;20503;-44
2022/01/22 01:00:49;;;;;;;5.40;1.17;;;7.20;99.90;;;;;;5093197;28;20035;-45
2022/01/22 01:03:15;;;;;;;5.15;1.08;;;7.10;99.90;;;;;;5093869;28;20065;-44
2022/01/22 01:05:40;;;;;;;7.15;1.08;;;7.20;99.90;;;;;;5093162;28;20043;-43
2022/01/22 01:08:06;;;;;;;1.52;0.73;;;7.20;99.90;;;;;;5092930;28;20020;-43
2022/01/22 01:10:32;;;;;;;1.13;0.45;;;7.20;99.90;;;;;;5093768;28;20539;-43
2022/01/22 01:12:57;;;;;;;0.57;0.50;;;7.20;99.90;;;;;;5093086;28;20020;-44
2022/01/22 01:15:54;;;;;;;5.60;1.00;;;7.20;99.90;;;;;;5092864;28;20382;-46
2022/01/22 01:32:13;;;;;;;3.80;0.82;;;7.30;99.90;;;;;;5093635;28;20157;-44
2022/01/22 01:34:42;;;;;;;9.43;1.40;;;7.30;99.90;;;;;;5093389;28;20031;-45
2022/01/22 01:37:08;;;;;;;4.60;0.73;;;7.30;99.90;;;;;;5092280;28;20032;-44
2022/01/22 01:39:36;;;;;;;5.63;0.90;;;7.30;99.90;;;;;;5092751;28;20028;-44
2022/01/22 01:42:06;;;;;;;3.75;0.90;;;7.30;99.90;;;;;;5092216;28;20032;-50
2022/01/22 01:44:32;;;;;;;2.65;0.70;;;7.30;99.90;;;;;;5093333;28;20039;-46
2022/01/22 01:47:02;;;;;;;6.28;1.08;;;7.30;99.90;;;;;;5093122;28;20024;-43
2022/01/22 01:49:28;;;;;;;2.42;0.90;;;7.30;99.90;;;;;;5092040;28;20024;-44
2022/01/22 01:51:56;;;;;;;5.45;0.77;;;7.30;99.90;;;;;;5092955;28;20026;-47
2022/01/22 01:54:36;;;;;;;6.80;1.27;;;7.30;99.90;;;;;;5091850;28;20032;-43
2022/01/22 01:59:50;;;;;;;1.38;0.60;;;7.30;99.90;;;;;;5092686;28;20525;-46
2022/01/22 02:02:16;;;;;;;1.33;0.80;;;7.30;99.90;;;;;;5092816;28;20031;-45
2022/01/22 02:04:42;;;;;;;3.45;0.88;;;7.40;99.90;;;;;;5091927;28;20020;-45
2022/01/22 02:07:09;;;;;;;1.90;0.82;;;7.40;99.90;;;;;;5092677;28;20032;-45
2022/01/22 02:09:35;;;;;;;1.98;0.70;;;7.40;99.90;;;;;;5092554;28;20028;-46
2022/01/22 02:12:07;;;;;;;4.30;1.23;;;7.40;99.90;;;;;;5091398;28;20032;-44
2022/01/22 02:25:23;;;;;;;2.75;0.77;;;7.30;99.90;;;;;;5091406;28;20063;-45
2022/01/22 02:27:49;;;;;;;1.50;0.52;;;7.40;99.90;;;;;;5092394;28;20028;-44
2022/01/22 02:30:21;;;;;;;4.30;0.88;;;7.40;99.90;;;;;;5092051;28;20031;-45
2022/01/22 02:35:36;;;;;;;1.30;0.63;;;7.40;99.90;;;;;;5092540;28;20036;-45
2022/01/22 02:38:12;;;;;;;4.18;0.60;;;7.40;99.90;;;;;;5092360;28;20059;-45
2022/01/22 02:40:45;;;;;;;12.27;1.15;;;7.40;99.90;;;;;;5091411;28;20039;-45
2022/01/22 02:43:11;;;;;;;0.93;0.47;;;7.40;99.90;;;;;;5092055;28;20479;-43
2022/01/22 02:45:39;;;;;;;2.85;0.68;;;7.40;99.90;;;;;;5091643;28;20042;-45
2022/01/22 02:48:05;;;;;;;1.05;0.70;;;7.40;99.90;;;;;;5092173;28;20021;-47
2022/01/22 02:50:30;;;;;;;2.25;0.50;;;7.40;99.90;;;;;;5091553;28;20077;-48
2022/01/22 02:52:56;;;;;;;10.23;0.80;;;7.40;99.90;;;;;;5091384;28;20023;-46
2022/01/22 02:55:22;;;;;;;2.90;1.05;;;7.40;99.90;;;;;;5091921;28;20091;-44
2022/01/22 02:57:47;;;;;;;2.83;1.13;;;7.40;99.90;;;;;;5092116;28;20043;-43
2022/01/22 03:00:18;;;;;;;2.15;1.02;;;7.40;99.90;;;;;;5090934;28;20020;-44
2022/01/22 03:02:43;;;;;;;3.70;0.93;;;7.40;99.90;;;;;;5091719;28;20375;-44
2022/01/22 03:05:10;;;;;;;9.23;1.30;;;7.40;99.90;;;;;;5093429;28;20038;-44
2022/01/22 03:07:38;;;;;;;5.45;1.05;;;7.40;99.90;;;;;;5095524;28;20028;-44
2022/01/22 03:10:05;;;;;;;1.75;0.82;;;7.40;99.90;;;;;;5095772;28;20178;-44
2022/01/22 03:12:50;;;;;;;4.70;1.20;;;7.40;99.90;;;;;;5096017;28;20028;-44
2022/01/22 03:15:50;;;;;;;4.25;1.00;;;7.40;99.90;;;;;;5095350;28;20110;-43
2022/01/22 03:18:33;;;;;;;7.65;0.95;;;7.40;99.90;;;;;;5095819;28;20514;-45
2022/01/22 03:21:07;;;;;;;6.47;0.68;;;7.40;99.90;;;;;;5094321;28;20032;-45
2022/01/22 03:29:17;;;;;;;8.73;1.45;;;7.40;99.90;;;;;;5094983;28;20138;-44
2022/01/22 03:31:42;;;;;;;1.60;0.60;;;7.40;99.90;;;;;;5095822;28;20024;-44
2022/01/22 03:34:09;;;;;;;3.75;0.68;;;7.40;99.90;;;;;;5095536;28;20027;-44
2022/01/22 03:36:35;;;;;;;1.67;0.90;;;7.40;99.90;;;;;;5094453;28;20100;-44
2022/01/22 03:39:04;;;;;;;1.25;0.70;;;7.40;99.90;;;;;;5095261;28;20541;-44
2022/01/22 03:41:29;;;;;;;1.55;0.47;;;7.40;99.90;;;;;;5095506;28;20026;-45
2022/01/22 03:43:55;;;;;;;0.73;0.55;;;7.40;99.90;;;;;;5094562;28;20024;-43
2022/01/22 03:46:21;;;;;;;3.35;0.75;;;7.40;99.90;;;;;;5095365;28;20036;-44
2022/01/22 03:48:47;;;;;;;2.40;0.75;;;7.40;99.90;;;;;;5094391;28;20016;-43
2022/01/22 03:51:13;;;;;;;1.27;0.63;;;7.40;99.90;;;;;;5094854;28;20016;-44
2022/01/22 03:53:39;;;;;;;4.18;0.57;;;7.40;99.90;;;;;;5095213;28;20024;-44
2022/01/22 03:56:07;;;;;;;3.03;0.60;;;7.40;99.90;;;;;;5093980;28;20055;-44
2022/01/22 03:58:40;;;;;;;3.40;0.50;;;7.30;99.90;;;;;;5095282;28;20020;-45
2022/01/22 04:03:40;;;;;;;0.73;0.65;;;7.30;99.90;;;;;;5094164;28;20032;-44
2022/01/22 04:08:59;;;;;;;1.83;0.60;;;7.30;99.90;;;;;;5058381;28;20040;-44
2022/01/22 04:11:25;;;;;;;4.97;0.68;;;7.30;99.90;;;;;;5073957;28;20522;-43
2022/01/22 04:13:57;;;;;;;1.10;0.70;;;7.30;99.90;;;;;;5074550;28;20162;-45
2022/01/22 04:16:23;;;;;;;2.80;0.85;;;7.30;99.90;;;;;;5073513;28;20036;-43
2022/01/22 04:27:10;;;;;;;0.98;0.52;;;7.30;99.90;;;;;;5094656;28;20085;-44
2022/01/22 04:29:36;;;;;;;2.75;0.52;;;7.30;99.90;;;;;;5094755;28;20034;-43
2022/01/22 04:32:02;;;;;;;2.25;0.88;;;7.30;99.90;;;;;;5093479;28;20032;-43
2022/01/22 04:34:27;;;;;;;3.45;0.60;;;7.30;99.90;;;;;;5094450;28;20519;-43
2022/01/22 04:36:53;;;;;;;1.42;0.55;;;7.30;99.90;;;;;;5094162;28;20047;-43
2022/01/22 04:39:21;;;;;;;0.73;0.40;;;7.30;99.90;;;;;;5093426;28;20450;-44
2022/01/22 04:41:47;;;;;;;2.13;0.60;;;7.30;99.90;;;;;;5093958;28;20036;-43
2022/01/22 04:44:13;;;;;;;2.33;0.88;;;7.30;99.90;;;;;;5094226;28;20024;-43
2022/01/22 04:57:18;;;;;;;6.57;0.57;;;7.30;99.90;;;;;;5094223;28;20117;-44
2022/01/22 04:59:44;;;;;;;2.03;0.65;;;7.30;99.90;;;;;;5093187;28;20395;-45
2022/01/22 05:02:10;;;;;;;1.17;0.50;;;7.30;99.90;;;;;;5093824;28;20564;-42
2022/01/22 05:04:36;;;;;;;1.42;0.60;;;7.30;99.90;;;;;;5093846;28;20028;-44
2022/01/22 05:07:02;;;;;;;1.85;0.50;;;7.30;99.90;;;;;;5092587;28;20024;-45
2022/01/22 05:09:27;;;;;;;2.30;0.70;;;7.30;99.90;;;;;;5093724;28;20020;-44
2022/01/22 05:11:53;;;;;;;1.80;0.45;;;7.30;99.90;;;;;;5093533;28;20027;-44
2022/01/22 05:14:19;;;;;;;0.93;0.63;;;7.30;99.90;;;;;;5092745;28;20016;-43
2022/01/22 05:16:44;;;;;;;0.35;0.30;;;7.20;99.90;;;;;;5093190;28;20089;-43
2022/01/22 05:19:15;;;;;;;1.67;0.70;;;7.20;99.90;;;;;;5093570;28;20020;-44
2022/01/22 05:21:43;;;;;;;5.78;0.60;;;7.20;99.90;;;;;;5092431;28;20111;-45
2022/01/22 05:24:13;;;;;;;3.08;0.82;;;7.20;99.90;;;;;;5093783;28;20028;-43
2022/01/22 05:37:06;;;;;;;1.63;0.50;;;7.30;99.90;;;;;;5092999;28;20382;-45
2022/01/22 05:39:33;;;;;;;0.50;0.30;;;7.20;99.90;;;;;;5093040;28;20404;-43
2022/01/22 05:42:05;;;;;;;1.20;0.43;;;7.20;99.90;;;;;;5092087;28;20023;-44
2022/01/22 05:44:31;;;;;;;2.83;0.50;;;7.20;99.90;;;;;;5093405;28;20035;-44
2022/01/22 05:47:02;;;;;;;1.50;0.47;;;7.30;99.90;;;;;;5092772;28;20107;-43
2022/01/22 05:49:30;;;;;;;0.60;0.40;;;7.30;99.90;;;;;;5092406;28;20028;-45
2022/01/22 05:51:58;;;;;;;0.60;0.20;;;7.30;99.90;;;;;;5092951;28;20051;-44
2022/01/22 05:59:40;;;;;;;4.40;0.85;;;7.30;99.90;;;;;;5093314;28;20399;-44
2022/01/22 06:02:11;;;;;;;1.10;0.40;;;7.30;99.90;;;;;;5092818;28;20024;-43
2022/01/22 06:04:38;;;;;;;0.82;0.45;;;7.30;99.90;;;;;;5092085;28;20031;-45
2022/01/22 06:07:04;;;;;;;2.20;0.73;;;7.30;99.90;;;;;;5092442;28;20479;-44
2022/01/22 06:09:32;;;;;;;0.60;0.40;;;7.20;99.90;;;;;;5074024;28;20549;-46
2022/01/22 06:12:13;;;;;;;1.98;0.45;;;7.20;99.90;;;;;;5092338;28;20103;-42
2022/01/22 06:14:39;;;;;;;1.60;0.40;;;7.30;99.90;;;;;;5092806;28;20028;-43
2022/01/22 06:17:05;;;;;;;2.55;0.50;;;7.30;99.90;;;;;;5091174;28;20086;-43
2022/01/22 06:19:30;;;;;;;2.05;0.60;;;7.20;99.90;;;;;;5092636;28;20056;-44
2022/01/22 06:21:56;;;;;;;2.88;0.73;;;7.30;99.90;;;;;;5092111;28;20032;-43
2022/01/22 06:24:23;;;;;;;5.78;0.57;;;7.20;99.90;;;;;;5091192;28;20039;-42
2022/01/22 06:26:49;;;;;;;1.85;0.57;;;7.30;99.90;;;;;;5092533;28;20030;-43
2022/01/22 06:29:15;;;;;;;2.38;0.80;;;7.30;99.90;;;;;;5092349;28;20012;-43
2022/01/22 06:31:40;;;;;;;3.15;0.50;;;7.20;99.90;;;;;;5091712;28;20055;-42
2022/01/22 06:34:06;;;;;;;3.58;2.65;;;7.20;99.90;;;;;;5092357;28;20066;-45
2022/01/22 06:36:32;;;;;;;4.07;0.47;;;7.30;99.90;;;;;;5091723;28;20470;-45
2022/01/22 06:39:10;;;;;;;6.55;1.00;;;7.20;99.90;;;;;;5091306;28;20115;-45
2022/01/22 06:41:46;;;;;;;5.07;1.00;;;7.20;99.90;;;;;;5092457;28;20145;-45
2022/01/22 06:44:12;;;;;;;6.10;0.80;;;7.20;99.90;;;;;;5092176;28;20081;-45
2022/01/22 06:46:37;;;;;;;5.20;1.23;;;7.20;99.90;;;;;;5091191;28;20024;-44
2022/01/22 06:49:03;;;;;;;3.13;0.90;;;7.20;99.90;;;;;;5092226;28;20107;-45
2022/01/22 06:51:28;;;;;;;2.50;1.00;;;7.20;99.90;;;;;;5092044;28;20497;-47
2022/01/22 06:53:55;;;;;;;6.32;0.80;;;7.20;99.90;;;;;;5091642;28;20498;-44
2022/01/22 06:56:22;;;;;;;4.95;1.90;;;7.20;99.90;;;;;;5071783;28;20036;-44
2022/01/22 06:58:48;;;;;;;3.47;1.17;;;7.20;99.90;;;;;;5086544;28;20016;-44
2022/01/22 07:01:15;;;;;;;3.65;0.88;;;7.20;99.90;;;;;;5092118;28;20509;-44
2022/01/22 07:03:41;;;;;;;2.55;1.00;;;7.30;99.90;;;;;;5091844;28;20028;-44
2022/01/22 07:06:06;;;;;;;2.25;1.00;;;7.30;99.90;;;;;;5090807;28;20555;-44
2022/01/22 07:08:32;;;;;;;3.00;1.00;;;7.20;99.90;;;;;;5092078;28;20169;-46
2022/01/22 07:10:57;;;;;;;2.42;0.90;;;7.20;99.90;;;;;;5091375;28;20064;-44
2022/01/22 07:13:23;;;;;;;2.15;0.85;;;7.20;99.90;;;;;;5090758;28;20067;-43
2022/01/22 07:15:48;;;;;;;1.42;0.85;;;7.20;99.90;;;;;;5091580;28;20024;-43
2022/01/22 07:18:14;;;;;;;2.25;0.60;;;7.20;99.90;;;;;;5091976;28;20410;-45
2022/01/22 07:20:44;;;;;;;1.08;0.50;;;7.20;99.90;;;;;;5091131;28;20024;-44
2022/01/22 07:23:17;;;;;;;3.55;0.63;;;7.20;99.90;;;;;;5091343;28;20024;-44
2022/01/22 07:25:44;;;;;;;2.38;0.55;;;7.30;99.90;;;;;;5090830;28;20048;-44
2022/01/22 07:28:11;;;;;;;3.13;0.80;;;7.20;99.90;;;;;;5090440;28;20024;-44
2022/01/22 07:30:38;;;;;;;3.33;0.90;;;7.20;99.90;;;;;;5089861;28;20030;-45
2022/01/22 07:33:04;;;;;;;4.85;0.80;;;7.20;99.90;;;;;;5090821;28;20047;-45
2022/01/22 07:35:29;;;;;;;2.80;1.13;;;7.20;99.90;;;;;;5076599;28;20021;-44
2022/01/22 07:37:55;;;;;;;1.50;0.50;;;7.20;99.90;;;;;;5070545;28;20051;-43
2022/01/22 07:40:20;;;;;;;2.38;0.70;;;7.20;99.90;;;;;;5088831;28;20028;-43
2022/01/22 07:42:46;;;;;;;1.40;0.75;;;7.20;99.90;;;;;;5090259;28;20024;-45
2022/01/22 07:45:12;;;;;;;0.95;0.60;;;7.20;99.90;;;;;;5090753;28;20032;-45
2022/01/22 07:47:38;;;;;;;0.80;0.60;;;7.20;99.90;;;;;;5090923;28;20036;-44
2022/01/22 07:50:05;;;;;;;3.67;0.60;;;7.20;99.90;;;;;;5090391;28;20031;-44
2022/01/22 07:52:30;;;;;;;2.67;0.77;;;7.20;99.90;;;;;;5089326;28;20028;-44
2022/01/22 07:54:56;;;;;;;3.03;0.73;;;7.20;99.90;;;;;;5084124;28;20433;-46
2022/01/22 07:57:22;;;;;;;3.85;0.85;;;7.20;99.90;;;;;;5081100;28;20128;-44
2022/01/22 07:59:47;;;;;;;0.82;0.55;;;7.20;99.90;;;;;;5081798;28;20525;-44
2022/01/22 08:02:15;;;;;;;0.90;0.43;;;7.20;99.90;;;;;;5093672;28;20062;-44
2022/01/22 08:04:41;;;;;;;1.27;0.70;;;7.20;99.90;;;;;;5094079;28;20055;-44
2022/01/22 08:07:08;;;;;;;2.30;0.70;;;7.20;99.90;;;;;;5094468;28;20360;-42
2022/01/22 08:09:34;;;;;;;1.98;1.00;;;7.20;99.90;;;;;;5093348;28;20035;-44
2022/01/22 08:11:59;;;;;;;0.80;0.60;;;7.20;99.90;;;;;;5093953;28;20020;-45
2022/01/22 08:14:25;;;;;;;12.77;0.73;;;7.20;99.90;;;;;;5093923;28;20021;-44
2022/01/22 08:16:51;;;;;;;1.10;0.52;;;7.20;99.90;;;;;;5093492;28;20032;-43
2022/01/22 08:19:17;;;;;;;0.88;0.57;;;7.20;99.90;;;;;;5094296;28;20527;-44
2022/01/22 08:21:44;;;;;;;3.35;0.60;;;7.10;99.90;;;;;;5094013;28;20051;-45
2022/01/22 08:24:11;;;;;;;4.50;0.70;;;7.20;99.90;;;;;;5093046;28;20082;-45
2022/01/22 08:26:41;;;;;;;1.63;0.52;;;7.20;99.90;;;;;;5093497;28;20617;-45
2022/01/22 08:29:06;;;;;;;3.40;0.52;;;7.20;99.90;;;;;;5094065;28;20031;-43
2022/01/22 08:36:45;;;;;;;1.05;0.73;;;7.20;99.90;;;;;;5094055;28;20516;-45
2022/01/22 08:39:11;;;;;;;5.10;0.98;;;7.20;99.90;;;;;;5093215;28;20027;-45
2022/01/22 08:41:37;;;;;;;2.03;0.50;;;7.20;99.90;;;;;;5093693;28;20569;-45
2022/01/22 08:44:03;;;;;;;0.82;0.60;;;7.20;99.90;;;;;;5092604;28;20510;-47
2022/01/22 08:46:30;;;;;;;0.55;0.50;;;7.20;99.90;;;;;;5092588;28;20042;-43
2022/01/22 08:48:56;;;;;;;0.90;0.80;;;7.30;99.90;;;;;;5093505;28;20406;-46
2022/01/22 08:51:21;;;;;;;1.10;0.95;;;7.20;99.90;;;;;;5092326;28;20139;-46
2022/01/22 08:53:48;;;;;;;1.42;0.80;;;7.30;99.90;;;;;;5093453;28;20497;-44
2022/01/22 08:56:14;;;;;;;0.20;0.20;;;7.30;99.90;;;;;;5093383;28;20115;-45
2022/01/22 08:58:40;;;;;;;1.45;0.50;;;7.30;99.90;;;;;;5092379;28;20118;-47
2022/01/22 09:01:06;;;;;;;1.85;0.80;;;7.30;99.90;;;;;;5093309;28;20020;-45
2022/01/22 09:03:32;;;;;;;1.70;0.60;;;7.30;99.90;;;;;;5092004;28;20077;-45
2022/01/22 09:05:58;;;;;;;0.52;0.50;;;7.30;99.90;;;;;;5092470;28;20028;-46
2022/01/22 09:08:24;;;;;;;2.85;0.60;;;7.30;99.90;;;;;;5092966;28;20015;-45
2022/01/22 09:10:52;;;;;;;3.42;0.50;;;7.30;99.90;;;;;;5093223;28;20032;-46
2022/01/22 09:13:18;;;;;;;0.68;0.60;;;7.30;99.90;;;;;;5091674;28;20114;-47
2022/01/22 09:15:44;;;;;;;1.15;0.95;;;7.30;99.90;;;;;;5093115;28;20020;-46
2022/01/22 09:18:09;;;;;;;0.50;0.28;;;7.40;99.90;;;;;;5092822;28;20372;-46
2022/01/22 09:23:06;;;;;;;1.17;0.55;;;7.30;99.90;;;;;;5083118;28;20036;-47
2022/01/22 09:25:32;;;;;;;4.95;0.30;;;7.30;99.90;;;;;;5076236;28;20036;-45
2022/01/22 09:27:57;;;;;;;1.60;0.88;;;7.30;99.90;;;;;;5091323;28;20024;-47
2022/01/22 09:30:23;;;;;;;3.08;0.55;;;7.30;99.90;;;;;;5085465;28;20374;-46
2022/01/22 09:32:49;;;;;;;0.90;0.70;;;7.30;99.90;;;;;;5082430;28;20033;-47
2022/01/22 09:35:15;;;;;;;4.13;0.52;;;7.30;99.90;;;;;;5079330;28;20062;-46
2022/01/22 09:37:41;;;;;;;1.45;0.50;;;7.30;99.90;;;;;;5081104;28;20032;-48
2022/01/22 09:40:07;;;;;;;1.27;0.80;;;7.30;99.90;;;;;;5081546;28;20387;-47
2022/01/22 09:42:33;;;;;;;4.63;0.50;;;7.30;99.90;;;;;;5078666;28;20108;-47
2022/01/22 09:44:59;;;;;;;2.72;0.60;;;7.30;99.90;;;;;;5080958;28;20440;-47
2022/01/22 09:47:25;;;;;;;1.00;0.52;;;7.40;99.90;;;;;;5079011;28;20032;-48
2022/01/22 09:49:50;;;;;;;3.47;0.90;;;7.40;99.90;;;;;;5081196;28;20050;-48
2022/01/22 09:52:17;;;;;;;2.88;0.70;;;7.30;99.90;;;;;;5079453;28;20471;-46
2022/01/22 09:54:42;;;;;;;3.10;0.60;;;7.40;99.90;;;;;;5081233;28;20672;-46
2022/01/22 09:57:09;;;;;;;1.10;0.68;;;7.40;99.90;;;;;;5080120;28;20186;-48
2022/01/22 09:59:35;;;;;;;1.42;0.70;;;7.30;99.90;;;;;;5081426;28;20028;-46
2022/01/22 10:02:27;;;;;;;1.25;0.57;;;7.40;99.90;;;;;;5079155;28;21864;-46
2022/01/22 10:04:52;;;;;;;5.18;0.93;;;7.40;99.90;;;;;;5076707;28;20031;-48
2022/01/22 10:07:21;;;;;;;8.48;1.02;;;7.40;99.90;;;;;;5079414;28;20024;-47
2022/01/22 10:10:02;;;;;;;2.20;1.00;;;7.40;99.90;;;;;;5080455;28;20021;-47
2022/01/22 10:12:30;;;;;;;1.38;0.68;;;7.40;99.90;;;;;;5080571;28;20025;-46
2022/01/22 10:15:13;;;;;;;2.15;0.80;;;7.40;99.90;;;;;;5078545;28;20514;-49
2022/01/22 10:17:44;;;;;;;5.80;1.00;;;7.40;99.90;;;;;;5078468;28;20487;-46
2022/01/22 10:20:25;;;;;;;4.05;1.08;;;7.40;99.90;;;;;;5079499;28;20016;-47
2022/01/22 10:22:52;;;;;;;2.80;1.33;;;7.40;99.90;;;;;;5077717;28;20468;-49
2022/01/22 10:25:48;;;;;;;1.80;1.00;;;7.50;99.90;;;;;;5078820;28;20060;-51
2022/01/22 10:28:21;;;;;;;3.20;0.88;;;7.50;99.90;;;;;;5081349;28;20020;-46
2022/01/22 10:30:51;;;;;;;2.15;0.75;;;7.50;99.90;;;;;;5080038;28;20082;-45
2022/01/22 10:35:46;;;;;;;1.45;0.85;;;7.50;99.90;;;;;;5080130;28;20028;-47
2022/01/22 10:38:12;;;;;;;2.53;1.10;;;7.50;99.90;;;;;;5080310;28;20040;-49
2022/01/22 10:40:40;;;;;;;3.22;1.20;;;7.60;99.90;;;;;;5080822;28;20069;-45
2022/01/22 10:43:31;;;;;;;2.50;1.08;;;7.60;99.90;;;;;;5080286;28;20016;-46
2022/01/22 10:49:05;;;;;;;1.95;1.20;;;7.70;99.90;;;;;;5091621;28;20036;-47
2022/01/22 10:51:42;;;;;;;1.75;1.05;;;7.70;99.90;;;;;;5090551;28;20027;-48
2022/01/22 10:54:10;;;;;;;4.43;1.30;;;7.70;99.90;;;;;;5091537;28;20036;-46
2022/01/22 10:56:39;;;;;;;2.63;1.25;;;7.80;99.90;;;;;;5091296;28;20020;-48
2022/01/22 10:59:08;;;;;;;;;;;7.80;99.90;;;;;;5073957;28;20028;-47
2022/01/22 11:01:51;;;;;;;1.05;0.77;;;7.80;99.90;;;;;;5070981;28;19905;-48
2022/01/22 11:04:24;;;;;;;1.30;1.10;;;7.80;99.90;;;;;;5071258;28;20060;-45
2022/01/22 11:06:53;;;;;;;2.80;1.20;;;7.80;99.90;;;;;;5070556;28;20021;-46
2022/01/22 11:09:20;;;;;;;1.75;1.27;;;7.80;99.90;;;;;;5070749;28;20108;-49
2022/01/22 11:11:45;;;;;;;2.97;0.90;;;7.80;99.90;;;;;;5070155;28;20021;-47
2022/01/22 11:14:12;;;;;;;1.92;1.30;;;7.80;99.90;;;;;;5071023;28;20100;-47
2022/01/22 11:16:40;;;;;;;3.55;1.00;;;7.90;99.90;;;;;;5070991;28;20021;-46
2022/01/22 11:19:10;;;;;;;1.90;1.40;;;7.90;99.90;;;;;;5070312;28;20439;-47
2022/01/22 11:21:44;;;;;;;7.05;1.85;;;7.80;99.90;;;;;;5070778;28;20078;-46
2022/01/22 11:24:13;;;;;;;3.42;1.60;;;7.80;99.90;;;;;;5071128;28;20035;-47
2022/01/22 11:26:39;;;;;;;3.08;1.67;;;7.90;99.90;;;;;;5071993;28;20067;-46
2022/01/22 11:29:06;;;;;;;6.53;1.50;;;7.80;99.90;;;;;;5074869;28;20017;-49
2022/01/22 11:31:33;;;;;;;5.13;1.55;;;7.80;99.90;;;;;;5074543;28;20483;-46
2022/01/22 11:34:00;;;;;;;5.03;1.77;;;7.80;99.90;;;;;;5089748;28;20028;-47
2022/01/22 11:36:37;;;;;;;1.70;1.00;;;7.80;99.90;;;;;;5094297;28;20060;-47
2022/01/22 11:39:03;;;;;;;5.18;1.38;;;7.90;99.90;;;;;;5094331;28;20119;-45
2022/01/22 11:41:30;;;;;;;3.97;1.48;;;7.90;99.90;;;;;;5093847;28;20028;-46
2022/01/22 11:46:37;;;;;;;7.97;1.45;;;7.90;99.90;;;;;;5094541;28;20032;-46
2022/01/22 11:49:10;;;;;;;3.63;1.42;;;7.90;99.90;;;;;;5082165;28;20438;-50
2022/01/22 11:51:36;;;;;;;3.85;1.35;;;7.80;99.90;;;;;;5073759;28;20107;-46
2022/01/22 11:54:02;;;;;;;3.60;1.30;;;7.80;99.90;;;;;;5081569;28;20047;-48
2022/01/22 11:56:29;;;;;;;6.25;1.45;;;7.80;99.90;;;;;;5094087;28;20067;-47
2022/01/22 11:58:58;;;;;;;6.03;2.28;;;7.70;99.90;;;;;;5094610;28;20064;-47
2022/01/22 12:01:43;;;;;;;4.70;2.55;;;7.70;99.90;;;;;;5093751;28;20096;-46
2022/01/22 12:04:11;;;;;;;7.57;1.75;;;7.70;99.90;;;;;;5094274;28;20020;-48
2022/01/22 12:06:37;;;;;;;8.35;1.65;;;7.70;99.90;;;;;;5093824;28;20487;-46
2022/01/22 12:09:25;;;;;;;3.08;1.58;;;7.70;99.90;;;;;;5093379;28;20027;-48
2022/01/22 12:14:48;;;;;;;10.05;1.65;;;7.70;99.90;;;;;;5094376;28;20089;-46
2022/01/22 12:17:20;;;;;;;;;;;7.70;99.90;;;;;;5093306;28;20122;-47
2022/01/22 12:19:52;;;;;;;4.22;1.35;;;7.70;99.90;;;;;;5094260;28;19904;-46
2022/01/22 12:22:30;;;;;;;6.65;1.40;;;7.80;99.90;;;;;;5093007;28;20107;-47
2022/01/22 12:24:56;;;;;;;7.35;1.83;;;7.70;99.90;;;;;;5093854;28;20051;-47
2022/01/22 12:27:43;;;;;;;4.00;1.30;;;7.70;99.90;;;;;;5093664;28;20421;-47
2022/01/22 12:30:09;;;;;;;6.32;2.00;;;7.70;99.90;;;;;;5093155;28;20024;-48
2022/01/22 12:32:48;;;;;;;4.80;2.08;;;7.70;99.90;;;;;;5093646;28;20469;-46
2022/01/22 12:35:34;;;;;;;14.30;2.22;;;7.70;99.90;;;;;;5093818;28;20508;-47
2022/01/22 12:41:00;;;;;;;5.53;2.22;;;7.70;99.90;;;;;;5073340;28;20037;-47
2022/01/22 12:43:33;;;;;;;15.35;2.78;;;7.70;99.90;;;;;;5072383;28;20103;-47
2022/01/22 12:46:01;;;;;;;5.93;2.35;;;7.70;99.90;;;;;;5077349;28;20046;-49
2022/01/22 12:48:36;;;;;;;5.97;1.98;;;7.70;99.90;;;;;;5093341;28;20016;-48
2022/01/22 12:51:04;;;;;;;6.53;2.22;;;7.80;99.90;;;;;;5092536;28;20073;-46
2022/01/22 12:53:31;;;;;;;8.55;2.22;;;7.70;99.90;;;;;;5093297;28;20043;-46
2022/01/22 12:58:28;;;;;;;6.40;1.98;;;7.70;99.90;;;;;;5092131;28;20517;-50
2022/01/22 13:01:11;;;;;;;4.00;1.98;;;7.70;99.90;;;;;;5093355;28;20020;-46
2022/01/22 13:03:40;;;;;;;3.75;1.90;;;7.70;99.90;;;;;;5093040;28;20020;-47
2022/01/22 13:06:05;;;;;;;5.28;2.15;;;7.70;99.90;;;;;;5092147;28;20039;-46
2022/01/22 13:08:33;;;;;;;8.02;2.28;;;7.70;99.90;;;;;;5093016;28;20020;-48
2022/01/22 13:11:01;;;;;;;5.10;2.10;;;7.70;99.90;;;;;;5093052;28;20023;-46
2022/01/22 13:13:28;;;;;;;7.53;2.60;;;7.70;99.90;;;;;;5091903;28;20032;-47
2022/01/22 13:16:06;;;;;;;10.68;2.83;;;7.70;99.90;;;;;;5092196;28;20502;-47
2022/01/22 13:18:46;;;;;;;6.45;2.05;;;7.70;99.90;;;;;;5092237;28;20028;-45
2022/01/22 13:21:13;;;;;;;3.33;2.03;;;7.70;99.90;;;;;;5092839;28;20125;-48
2022/01/22 13:23:39;;;;;;;11.68;2.92;;;7.70;99.90;;;;;;5092722;28;20107;-50
2022/01/22 13:26:05;;;;;;;8.60;1.85;;;7.80;99.90;;;;;;5091410;28;20516;-47
2022/01/22 13:28:36;;;;;;;6.47;2.38;;;7.80;99.90;;;;;;5092804;28;20021;-47
2022/01/22 13:31:16;;;;;;;6.03;2.97;;;7.80;99.90;;;;;;5092719;28;20394;-47
2022/01/22 13:33:51;;;;;;;8.40;2.67;;;7.80;99.90;;;;;;5091729;28;20051;-47
2022/01/22 13:36:25;;;;;;;4.55;2.25;;;7.80;99.90;;;;;;5092234;28;20530;-50
2022/01/22 13:49:42;;;;;;;6.95;1.90;;;7.80;99.90;;;;;;5092438;28;20390;-47
2022/01/22 13:52:11;;;;;;;8.40;2.47;;;7.80;99.90;;;;;;5091761;28;20491;-47
2022/01/22 13:54:40;;;;;;;10.52;3.47;;;7.90;99.90;;;;;;5091432;28;20019;-48
2022/01/22 13:57:10;;;;;;;;;;;7.90;99.90;;;;;;5092638;28;20016;-47
2022/01/22 13:59:38;;;;;;;7.22;1.88;;;7.80;99.90;;;;;;5091847;28;19995;-47
2022/01/22 14:02:14;;;;;;;4.75;1.60;;;7.80;99.90;;;;;;5091155;28;20463;-47
2022/01/22 14:04:51;;;;;;;4.90;1.80;;;7.80;99.90;;;;;;5091966;28;20043;-50
2022/01/22 14:07:47;;;;;;;5.70;1.90;;;7.80;99.90;;;;;;5091921;28;20068;-47
2022/01/22 14:10:14;;;;;;;5.43;1.60;;;7.80;99.90;;;;;;5091947;28;20038;-50
2022/01/22 14:12:46;;;;;;;6.93;1.55;;;7.80;99.90;;;;;;5091464;28;20024;-49
2022/01/22 14:15:15;;;;;;;6.30;1.42;;;7.80;99.90;;;;;;5090854;28;20031;-49
2022/01/22 14:17:54;;;;;;;;;;;7.70;99.90;;;;;;5092098;28;20035;-51
2022/01/22 14:20:27;;;;;;;4.07;1.02;;;7.70;99.90;;;;;;5091522;28;19946;-47
2022/01/22 14:22:57;;;;;;;6.55;1.10;;;7.70;99.90;;;;;;5091216;28;20028;-49
2022/01/22 14:25:23;;;;;;;2.83;0.90;;;7.70;99.90;;;;;;5091175;28;20048;-49
2022/01/22 14:28:00;;;;;;;2.20;1.38;;;7.70;99.90;;;;;;5091773;28;20024;-53
2022/01/22 14:30:44;;;;;;;9.63;2.20;;;7.70;99.90;;;;;;5090893;28;20047;-51
2022/01/22 14:33:12;;;;;;;3.28;1.20;;;7.70;99.90;;;;;;5091641;28;20463;-51
2022/01/22 14:35:39;;;;;;;2.42;1.58;;;7.70;99.90;;;;;;5091572;28;20042;-50
2022/01/22 14:38:32;;;;;;;2.40;1.27;;;7.70;99.90;;;;;;5090564;28;20040;-48
2022/01/22 14:46:53;;;;;;;1.85;1.40;;;7.60;99.90;;;;;;5079725;28;20085;-51
2022/01/22 14:49:40;;;;;;;6.38;1.48;;;7.60;99.90;;;;;;5076557;28;20063;-50
2022/01/22 14:52:08;;;;;;;6.53;0.88;;;7.60;99.90;;;;;;5089217;28;20021;-52
2022/01/22 14:54:37;;;;;;;1.40;0.98;;;7.60;99.90;;;;;;5090889;28;20107;-49
2022/01/22 14:57:05;;;;;;;3.38;1.20;;;7.60;99.90;;;;;;5089950;28;20020;-50
2022/01/22 14:59:31;;;;;;;4.15;0.95;;;7.50;99.90;;;;;;5073624;28;20043;-53
2022/01/22 15:01:57;;;;;;;3.15;0.80;;;7.50;99.90;;;;;;5081863;28;20024;-51
2022/01/22 15:04:22;;;;;;;2.53;1.38;;;7.50;99.90;;;;;;5088100;28;20054;-52